TimeMDT,TemperatureF,Dew PointF,Humidity,Sea Level PressureIn,VisibilityMPH,Wind Direction,Wind SpeedMPH,Gust SpeedMPH,PrecipitationIn,Events,Conditions,WindDirDegrees,DateUTC
12:15 AM,50.0,44.6,82,30.10,10.0,NW,33.4,-,N/A,,Clear,320,2013-06-14 06:15:00
12:35 AM,48.2,44.6,87,30.12,10.0,NNW,21.9,-,N/A,,Clear,330,2013-06-14 06:35:00
12:55 AM,50.0,44.6,82,30.14,10.0,North,28.8,35.7,N/A,,Scattered Clouds,350,2013-06-14 06:55:00
1:15 AM,48.2,37.4,66,30.14,10.0,NNW,33.4,39.1,N/A,,Scattered Clouds,340,2013-06-14 07:15:00
1:35 AM,46.4,42.8,87,30.16,10.0,North,28.8,38.0,N/A,,Scattered Clouds,350,2013-06-14 07:35:00
1:55 AM,44.6,41.0,87,30.17,10.0,NNW,27.6,-,N/A,,Scattered Clouds,340,2013-06-14 07:55:00
2:15 AM,44.6,39.2,81,30.16,10.0,North,25.3,-,N/A,,Mostly Cloudy,350,2013-06-14 08:15:00
2:35 AM,42.8,41.0,93,30.17,10.0,North,24.2,29.9,N/A,,Scattered Clouds,360,2013-06-14 08:35:00
2:55 AM,42.8,39.2,87,30.16,10.0,North,17.3,21.9,N/A,,Mostly Cloudy,10,2013-06-14 08:55:00
3:15 AM,44.6,37.4,76,30.14,10.0,North,8.1,-,N/A,,Scattered Clouds,10,2013-06-14 09:15:00
3:35 AM,46.4,33.8,62,30.14,10.0,Calm,Calm,-,N/A,,Clear,0,2013-06-14 09:35:00
3:55 AM,51.8,26.6,38,30.14,10.0,SW,8.1,-,N/A,,Clear,220,2013-06-14 09:55:00
4:15 AM,50.0,24.8,37,30.16,10.0,South,12.7,-,N/A,,Clear,190,2013-06-14 10:15:00
4:35 AM,46.4,33.8,62,30.16,10.0,South,9.2,-,N/A,,Clear,170,2013-06-14 10:35:00
4:55 AM,46.4,33.8,62,30.17,10.0,SSE,9.2,-,N/A,,Clear,160,2013-06-14 10:55:00
5:15 AM,44.6,32.0,61,30.18,10.0,SSW,13.8,-,N/A,,Clear,200,2013-06-14 11:15:00
5:35 AM,44.6,32.0,61,30.19,10.0,SSW,10.4,-,N/A,,Clear,210,2013-06-14 11:35:00
5:55 AM,46.4,32.0,57,30.19,10.0,WSW,8.1,-,N/A,,Clear,240,2013-06-14 11:55:00
6:15 AM,46.4,28.4,50,30.20,10.0,SSE,3.5,-,N/A,,Clear,150,2013-06-14 12:15:00
6:35 AM,46.4,26.6,46,30.20,10.0,South,8.1,-,N/A,,Clear,170,2013-06-14 12:35:00
6:55 AM,46.4,30.2,53,30.19,10.0,SSE,5.8,-,N/A,,Clear,150,2013-06-14 12:55:00
7:15 AM,44.6,35.6,71,30.20,10.0,SE,6.9,-,N/A,,Clear,140,2013-06-14 13:15:00
7:35 AM,48.2,35.6,62,30.20,10.0,SSE,9.2,-,N/A,,Clear,160,2013-06-14 13:35:00
7:55 AM,48.2,37.4,66,30.20,10.0,SE,9.2,-,N/A,,Clear,130,2013-06-14 13:55:00
8:15 AM,48.2,37.4,66,30.20,10.0,SE,6.9,-,N/A,,Clear,130,2013-06-14 14:15:00
8:35 AM,48.2,37.4,66,30.20,10.0,ESE,10.4,-,N/A,,Clear,120,2013-06-14 14:35:00
8:55 AM,50.0,37.4,62,30.20,10.0,ESE,13.8,-,N/A,,Clear,120,2013-06-14 14:55:00
9:15 AM,51.8,37.4,58,30.19,10.0,ESE,16.1,-,N/A,,Clear,110,2013-06-14 15:15:00
9:35 AM,51.8,35.6,54,30.19,10.0,ESE,19.6,-,N/A,,Clear,120,2013-06-14 15:35:00
9:55 AM,51.8,35.6,54,30.16,10.0,SE,25.3,28.8,N/A,,Clear,130,2013-06-14 15:55:00
10:15 AM,53.6,37.4,54,30.18,10.0,SE,21.9,31.1,N/A,,Clear,130,2013-06-14 16:15:00
10:35 AM,53.6,35.6,51,30.18,10.0,SE,17.3,27.6,N/A,,Clear,140,2013-06-14 16:35:00
10:55 AM,55.4,32.0,41,30.17,10.0,SE,21.9,31.1,N/A,,Clear,140,2013-06-14 16:55:00
11:15 AM,59.0,28.4,31,30.19,10.0,South,15.0,29.9,N/A,,Clear,170,2013-06-14 17:15:00
11:35 AM,59.0,26.6,29,30.18,10.0,South,19.6,26.5,N/A,,Clear,170,2013-06-14 17:35:00
11:55 AM,59.0,23.0,25,30.18,10.0,South,17.3,27.6,N/A,,Clear,170,2013-06-14 17:55:00
12:15 PM,60.8,12.2,15,30.18,10.0,South,20.7,34.5,N/A,,Clear,170,2013-06-14 18:15:00
12:35 PM,60.8,14.0,16,30.18,10.0,South,18.4,33.4,N/A,,Clear,170,2013-06-14 18:35:00
12:55 PM,60.8,12.2,15,30.18,10.0,South,21.9,28.8,N/A,,Clear,170,2013-06-14 18:55:00
1:15 PM,62.6,14.0,15,30.19,10.0,SSW,19.6,31.1,N/A,,Clear,210,2013-06-14 19:15:00
1:35 PM,60.8,14.0,16,30.19,10.0,South,17.3,35.7,N/A,,Clear,170,2013-06-14 19:35:00
1:55 PM,62.6,14.0,15,30.19,10.0,South,15.0,29.9,N/A,,Clear,170,2013-06-14 19:55:00
2:15 PM,62.6,10.4,13,30.18,10.0,South,23.0,35.7,N/A,,Clear,190,2013-06-14 20:15:00
2:35 PM,62.6,14.0,15,30.18,10.0,SSE,18.4,28.8,N/A,,Clear,160,2013-06-14 20:35:00
2:55 PM,64.4,10.4,12,30.19,10.0,SSW,20.7,32.2,N/A,,Clear,210,2013-06-14 20:55:00
3:15 PM,64.4,5.0,10,30.19,10.0,South,21.9,31.1,N/A,,Clear,190,2013-06-14 21:15:00
3:35 PM,64.4,6.8,10,30.20,10.0,SSW,15.0,28.8,N/A,,Clear,210,2013-06-14 21:35:00
3:55 PM,64.4,3.2,9,30.20,10.0,WSW,16.1,26.5,N/A,,Clear,250,2013-06-14 21:55:00
4:15 PM,64.4,1.4,8,30.20,10.0,SW,9.2,24.2,N/A,,Clear,230,2013-06-14 22:15:00
4:35 PM,66.2,5.0,9,30.20,10.0,SW,16.1,24.2,N/A,,Clear,230,2013-06-14 22:35:00
4:55 PM,64.4,3.2,9,30.21,10.0,SW,17.3,28.8,N/A,,Clear,220,2013-06-14 22:55:00
5:15 PM,62.6,3.2,9,30.21,10.0,SW,15.0,18.4,N/A,,Clear,230,2013-06-14 23:15:00
5:35 PM,60.8,5.0,11,30.21,10.0,WSW,18.4,-,N/A,,Clear,240,2013-06-14 23:35:00
5:55 PM,60.8,6.8,12,30.21,10.0,West,11.5,-,N/A,,Clear,260,2013-06-14 23:55:00
6:15 PM,59.0,12.2,16,30.21,10.0,West,12.7,-,N/A,,Clear,270,2013-06-15 00:15:00
6:35 PM,59.0,10.4,15,30.21,10.0,West,12.7,-,N/A,,Clear,280,2013-06-15 00:35:00
6:55 PM,59.0,10.4,15,30.21,10.0,West,13.8,-,N/A,,Clear,280,2013-06-15 00:55:00
7:15 PM,59.0,19.4,22,30.21,10.0,NNW,15.0,-,N/A,,Clear,340,2013-06-15 01:15:00
7:35 PM,55.4,19.4,25,30.21,10.0,NNW,24.2,-,N/A,,Clear,340,2013-06-15 01:35:00
7:55 PM,55.4,19.4,25,30.23,10.0,North,11.5,15.0,N/A,,Clear,350,2013-06-15 01:55:00
8:15 PM,53.6,19.4,26,30.23,10.0,NNW,18.4,-,N/A,,Clear,330,2013-06-15 02:15:00
8:35 PM,51.8,21.2,30,30.24,10.0,NNW,17.3,-,N/A,,Clear,330,2013-06-15 02:35:00
8:55 PM,50.0,21.2,32,30.24,10.0,NNW,18.4,-,N/A,,Clear,340,2013-06-15 02:55:00
9:15 PM,50.0,21.2,32,30.24,10.0,NNW,17.3,-,N/A,,Clear,340,2013-06-15 03:15:00
9:35 PM,50.0,21.2,32,30.26,10.0,NNW,19.6,-,N/A,,Clear,340,2013-06-15 03:35:00
9:55 PM,48.2,21.2,34,30.26,10.0,NNW,19.6,-,N/A,,Clear,330,2013-06-15 03:55:00
10:15 PM,46.4,21.2,37,30.27,10.0,NNW,23.0,-,N/A,,Clear,330,2013-06-15 04:15:00
10:35 PM,46.4,24.8,43,30.28,10.0,NNW,26.5,29.9,N/A,,Clear,330,2013-06-15 04:35:00
10:55 PM,46.4,30.2,53,30.28,10.0,NNW,28.8,-,N/A,,Clear,330,2013-06-15 04:55:00
11:15 PM,44.6,30.2,57,30.29,10.0,NW,25.3,-,N/A,,Clear,320,2013-06-15 05:15:00
11:35 PM,44.6,28.4,53,30.29,10.0,NW,23.0,-,N/A,,Clear,320,2013-06-15 05:35:00
11:55 PM,44.6,28.4,53,30.29,10.0,NNW,19.6,-,N/A,,Clear,330,2013-06-15 05:55:00